sensor_id;sensor_type;location;lat;lon;timestamp;pressure;altitude;pressure_sealevel;temperature;humidity
8641;BME280;4358;42.100;25.222;2023-07-13T00:00:10;100084.94;;;27.87;100.00
8641;BME280;4358;42.100;25.222;2023-07-13T00:02:37;100079.28;;;27.89;100.00
8641;BME280;4358;42.100;25.222;2023-07-13T00:05:06;100074.88;;;27.88;100.00
8641;BME280;4358;42.100;25.222;2023-07-13T00:07:33;100079.25;;;27.95;100.00
8641;BME280;4358;42.100;25.222;2023-07-13T00:10:00;100081.16;;;28.01;100.00
8641;BME280;4358;42.100;25.222;2023-07-13T00:12:29;100076.53;;;28.02;100.00
8641;BME280;4358;42.100;25.222;2023-07-13T00:14:57;100073.81;;;28.02;100.00
8641;BME280;4358;42.100;25.222;2023-07-13T00:17:24;100081.78;;;28.03;100.00
8641;BME280;4358;42.100;25.222;2023-07-13T00:19:51;100075.50;;;28.03;100.00
8641;BME280;4358;42.100;25.222;2023-07-13T00:22:19;100081.38;;;28.00;100.00
8641;BME280;4358;42.100;25.222;2023-07-13T00:24:46;100075.72;;;27.95;100.00
8641;BME280;4358;42.100;25.222;2023-07-13T00:27:13;100074.44;;;27.91;100.00
8641;BME280;4358;42.100;25.222;2023-07-13T00:29:41;100074.25;;;27.86;100.00
8641;BME280;4358;42.100;25.222;2023-07-13T00:32:08;100075.06;;;27.79;100.00
8641;BME280;4358;42.100;25.222;2023-07-13T00:34:37;100075.50;;;27.76;100.00
8641;BME280;4358;42.100;25.222;2023-07-13T00:37:04;100070.47;;;27.67;100.00
8641;BME280;4358;42.100;25.222;2023-07-13T00:39:34;100062.94;;;27.62;100.00
8641;BME280;4358;42.100;25.222;2023-07-13T00:42:02;100067.97;;;27.52;100.00
8641;BME280;4358;42.100;25.222;2023-07-13T00:44:29;100065.78;;;27.34;100.00
8641;BME280;4358;42.100;25.222;2023-07-13T00:46:56;100062.41;;;27.32;100.00
8641;BME280;4358;42.100;25.222;2023-07-13T00:49:25;100064.94;;;27.34;100.00
8641;BME280;4358;42.100;25.222;2023-07-13T00:51:55;100065.38;;;27.31;100.00
8641;BME280;4358;42.100;25.222;2023-07-13T00:54:24;100056.75;;;27.27;100.00
8641;BME280;4358;42.100;25.222;2023-07-13T00:56:55;100059.47;;;27.21;100.00
8641;BME280;4358;42.100;25.222;2023-07-13T00:59:24;100058.19;;;27.17;100.00
8641;BME280;4358;42.100;25.222;2023-07-13T01:01:51;100059.44;;;27.08;100.00
8641;BME280;4358;42.100;25.222;2023-07-13T01:04:19;100061.06;;;26.95;100.00
8641;BME280;4358;42.100;25.222;2023-07-13T01:06:46;100062.22;;;26.73;100.00
8641;BME280;4358;42.100;25.222;2023-07-13T01:09:14;100053.38;;;26.58;100.00
8641;BME280;4358;42.100;25.222;2023-07-13T01:11:41;100057.06;;;26.44;100.00
8641;BME280;4358;42.100;25.222;2023-07-13T01:14:12;100051.13;;;26.27;100.00
8641;BME280;4358;42.100;25.222;2023-07-13T01:16:40;100047.34;;;26.00;100.00
8641;BME280;4358;42.100;25.222;2023-07-13T01:19:14;100052.50;;;25.89;100.00
8641;BME280;4358;42.100;25.222;2023-07-13T01:21:50;100051.03;;;25.44;100.00
8641;BME280;4358;42.100;25.222;2023-07-13T01:24:17;100053.28;;;25.19;100.00
8641;BME280;4358;42.100;25.222;2023-07-13T01:26:44;100039.78;;;25.25;100.00
8641;BME280;4358;42.100;25.222;2023-07-13T01:29:11;100043.34;;;25.05;100.00
8641;BME280;4358;42.100;25.222;2023-07-13T01:31:37;100036.94;;;24.91;100.00
8641;BME280;4358;42.100;25.222;2023-07-13T01:34:04;100041.47;;;25.05;100.00
8641;BME280;4358;42.100;25.222;2023-07-13T01:36:31;100052.13;;;25.07;100.00
8641;BME280;4358;42.100;25.222;2023-07-13T01:39:00;100041.81;;;25.02;100.00
8641;BME280;4358;42.100;25.222;2023-07-13T01:41:26;100054.50;;;24.95;100.00
8641;BME280;4358;42.100;25.222;2023-07-13T01:43:53;100044.78;;;24.86;100.00
8641;BME280;4358;42.100;25.222;2023-07-13T01:46:20;100038.78;;;24.76;100.00
8641;BME280;4358;42.100;25.222;2023-07-13T01:48:47;100034.03;;;24.63;100.00
8641;BME280;4358;42.100;25.222;2023-07-13T01:51:15;100035.28;;;24.46;100.00
8641;BME280;4358;42.100;25.222;2023-07-13T01:53:42;100051.75;;;24.44;100.00
8641;BME280;4358;42.100;25.222;2023-07-13T01:56:10;100025.94;;;24.19;100.00
8641;BME280;4358;42.100;25.222;2023-07-13T01:58:37;100057.91;;;24.24;100.00
8641;BME280;4358;42.100;25.222;2023-07-13T02:01:04;100063.31;;;24.09;100.00
8641;BME280;4358;42.100;25.222;2023-07-13T02:03:30;100070.13;;;24.05;100.00
8641;BME280;4358;42.100;25.222;2023-07-13T02:05:57;100067.72;;;23.73;100.00
8641;BME280;4358;42.100;25.222;2023-07-13T02:08:24;100071.38;;;23.65;100.00
8641;BME280;4358;42.100;25.222;2023-07-13T02:10:51;100072.44;;;23.79;100.00
8641;BME280;4358;42.100;25.222;2023-07-13T02:13:19;100070.19;;;23.82;100.00
8641;BME280;4358;42.100;25.222;2023-07-13T02:15:46;100072.81;;;23.76;100.00
8641;BME280;4358;42.100;25.222;2023-07-13T02:18:13;100079.28;;;23.67;100.00
8641;BME280;4358;42.100;25.222;2023-07-13T02:20:42;100073.09;;;23.81;100.00
8641;BME280;4358;42.100;25.222;2023-07-13T02:23:09;100070.28;;;23.89;100.00
8641;BME280;4358;42.100;25.222;2023-07-13T02:25:36;100073.84;;;23.89;100.00
8641;BME280;4358;42.100;25.222;2023-07-13T02:28:03;100072.50;;;23.71;100.00
8641;BME280;4358;42.100;25.222;2023-07-13T02:30:31;100074.47;;;23.77;100.00
8641;BME280;4358;42.100;25.222;2023-07-13T02:32:58;100066.28;;;23.85;100.00
8641;BME280;4358;42.100;25.222;2023-07-13T02:35:25;100081.13;;;23.89;100.00
8641;BME280;4358;42.100;25.222;2023-07-13T02:37:52;100075.88;;;23.87;100.00
8641;BME280;4358;42.100;25.222;2023-07-13T02:40:19;100082.81;;;23.90;100.00
8641;BME280;4358;42.100;25.222;2023-07-13T02:42:46;100089.22;;;23.97;100.00
8641;BME280;4358;42.100;25.222;2023-07-13T02:45:13;100087.50;;;23.81;100.00
8641;BME280;4358;42.100;25.222;2023-07-13T02:47:41;100085.69;;;23.74;100.00
8641;BME280;4358;42.100;25.222;2023-07-13T02:50:08;100088.16;;;23.60;100.00
8641;BME280;4358;42.100;25.222;2023-07-13T02:52:35;100081.72;;;23.61;100.00
8641;BME280;4358;42.100;25.222;2023-07-13T02:55:03;100084.22;;;23.48;100.00
8641;BME280;4358;42.100;25.222;2023-07-13T02:57:29;100090.69;;;23.39;100.00
8641;BME280;4358;42.100;25.222;2023-07-13T02:59:58;100099.25;;;23.20;100.00
8641;BME280;4358;42.100;25.222;2023-07-13T03:02:25;100094.53;;;23.22;100.00
8641;BME280;4358;42.100;25.222;2023-07-13T03:04:55;100094.44;;;23.30;100.00
8641;BME280;4358;42.100;25.222;2023-07-13T03:07:22;100099.28;;;23.43;100.00
8641;BME280;4358;42.100;25.222;2023-07-13T03:09:48;100101.81;;;23.44;100.00
8641;BME280;4358;42.100;25.222;2023-07-13T03:12:15;100102.53;;;23.38;100.00
8641;BME280;4358;42.100;25.222;2023-07-13T03:14:42;100098.13;;;23.37;100.00
8641;BME280;4358;42.100;25.222;2023-07-13T03:17:09;100097.13;;;23.38;100.00
8641;BME280;4358;42.100;25.222;2023-07-13T03:19:36;100092.00;;;23.43;100.00
8641;BME280;4358;42.100;25.222;2023-07-13T03:22:05;100088.06;;;23.54;100.00
8641;BME280;4358;42.100;25.222;2023-07-13T03:24:32;100092.75;;;23.60;100.00
8641;BME280;4358;42.100;25.222;2023-07-13T03:27:01;100095.34;;;23.53;100.00
8641;BME280;4358;42.100;25.222;2023-07-13T03:29:28;100092.81;;;23.52;100.00
8641;BME280;4358;42.100;25.222;2023-07-13T03:31:55;100098.81;;;23.62;100.00
8641;BME280;4358;42.100;25.222;2023-07-13T03:34:21;100098.47;;;23.65;100.00
8641;BME280;4358;42.100;25.222;2023-07-13T03:36:48;100103.38;;;23.61;100.00
8641;BME280;4358;42.100;25.222;2023-07-13T03:39:17;100107.19;;;23.52;100.00
8641;BME280;4358;42.100;25.222;2023-07-13T03:41:43;100095.94;;;23.63;100.00
8641;BME280;4358;42.100;25.222;2023-07-13T03:44:11;100089.78;;;23.70;100.00
8641;BME280;4358;42.100;25.222;2023-07-13T03:46:38;100103.19;;;23.86;100.00
8641;BME280;4358;42.100;25.222;2023-07-13T03:49:05;100086.72;;;23.87;100.00
8641;BME280;4358;42.100;25.222;2023-07-13T03:51:32;100098.81;;;23.99;100.00
8641;BME280;4358;42.100;25.222;2023-07-13T03:53:59;100092.00;;;24.03;100.00
8641;BME280;4358;42.100;25.222;2023-07-13T03:56:27;100097.16;;;24.13;100.00
8641;BME280;4358;42.100;25.222;2023-07-13T03:58:55;100095.09;;;24.15;100.00
8641;BME280;4358;42.100;25.222;2023-07-13T04:01:24;100093.09;;;24.17;100.00
8641;BME280;4358;42.100;25.222;2023-07-13T04:03:52;100096.09;;;24.22;100.00
8641;BME280;4358;42.100;25.222;2023-07-13T04:06:21;100099.38;;;24.18;100.00
8641;BME280;4358;42.100;25.222;2023-07-13T04:08:51;100103.25;;;24.15;100.00
8641;BME280;4358;42.100;25.222;2023-07-13T04:11:19;100102.22;;;24.16;100.00
8641;BME280;4358;42.100;25.222;2023-07-13T04:13:48;100100.25;;;24.10;100.00
8641;BME280;4358;42.100;25.222;2023-07-13T04:16:16;100103.34;;;24.07;100.00
8641;BME280;4358;42.100;25.222;2023-07-13T04:18:44;100091.97;;;24.26;100.00
8641;BME280;4358;42.100;25.222;2023-07-13T04:21:12;100089.72;;;24.44;100.00
8641;BME280;4358;42.100;25.222;2023-07-13T04:23:39;100090.19;;;24.63;100.00
8641;BME280;4358;42.100;25.222;2023-07-13T04:26:07;100089.63;;;24.67;100.00
8641;BME280;4358;42.100;25.222;2023-07-13T04:28:34;100079.97;;;24.79;100.00
8641;BME280;4358;42.100;25.222;2023-07-13T04:31:02;100095.59;;;25.07;100.00
8641;BME280;4358;42.100;25.222;2023-07-13T04:33:29;100099.53;;;25.25;100.00
8641;BME280;4358;42.100;25.222;2023-07-13T04:35:56;100101.34;;;25.40;100.00
8641;BME280;4358;42.100;25.222;2023-07-13T04:38:24;100104.41;;;25.51;100.00
8641;BME280;4358;42.100;25.222;2023-07-13T04:40:54;100097.59;;;25.41;100.00
8641;BME280;4358;42.100;25.222;2023-07-13T04:43:21;100097.94;;;25.52;100.00
8641;BME280;4358;42.100;25.222;2023-07-13T04:45:48;100103.47;;;25.59;100.00
8641;BME280;4358;42.100;25.222;2023-07-13T04:48:16;100103.16;;;25.68;100.00
8641;BME280;4358;42.100;25.222;2023-07-13T04:50:43;100108.75;;;25.88;100.00
8641;BME280;4358;42.100;25.222;2023-07-13T04:53:10;100117.53;;;26.11;100.00
8641;BME280;4358;42.100;25.222;2023-07-13T04:55:37;100098.63;;;26.03;100.00
8641;BME280;4358;42.100;25.222;2023-07-13T04:58:04;100121.78;;;26.21;100.00
8641;BME280;4358;42.100;25.222;2023-07-13T05:00:31;100118.91;;;26.29;100.00
8641;BME280;4358;42.100;25.222;2023-07-13T05:02:58;100121.09;;;26.40;100.00
8641;BME280;4358;42.100;25.222;2023-07-13T05:05:26;100119.75;;;26.57;100.00
8641;BME280;4358;42.100;25.222;2023-07-13T05:07:53;100120.25;;;26.74;100.00
8641;BME280;4358;42.100;25.222;2023-07-13T05:10:21;100117.22;;;26.90;100.00
8641;BME280;4358;42.100;25.222;2023-07-13T05:12:48;100118.97;;;27.11;100.00
8641;BME280;4358;42.100;25.222;2023-07-13T05:15:15;100116.94;;;27.26;100.00
8641;BME280;4358;42.100;25.222;2023-07-13T05:17:46;100119.06;;;27.37;100.00
8641;BME280;4358;42.100;25.222;2023-07-13T05:20:13;100118.28;;;27.56;100.00
8641;BME280;4358;42.100;25.222;2023-07-13T05:22:42;100123.25;;;27.46;100.00
8641;BME280;4358;42.100;25.222;2023-07-13T05:25:09;100118.66;;;27.47;100.00
8641;BME280;4358;42.100;25.222;2023-07-13T05:27:36;100121.88;;;27.63;100.00
8641;BME280;4358;42.100;25.222;2023-07-13T05:30:04;100124.59;;;27.83;100.00
8641;BME280;4358;42.100;25.222;2023-07-13T05:32:31;100119.97;;;27.97;100.00
8641;BME280;4358;42.100;25.222;2023-07-13T05:34:58;100122.13;;;28.14;100.00
8641;BME280;4358;42.100;25.222;2023-07-13T05:37:25;100128.78;;;28.32;100.00
8641;BME280;4358;42.100;25.222;2023-07-13T05:39:53;100126.06;;;28.38;100.00
8641;BME280;4358;42.100;25.222;2023-07-13T05:42:20;100133.81;;;28.48;100.00
8641;BME280;4358;42.100;25.222;2023-07-13T05:44:46;100135.03;;;28.58;100.00
8641;BME280;4358;42.100;25.222;2023-07-13T05:47:13;100126.25;;;28.56;100.00
8641;BME280;4358;42.100;25.222;2023-07-13T05:49:40;100128.31;;;28.68;100.00
8641;BME280;4358;42.100;25.222;2023-07-13T05:52:07;100130.16;;;28.87;100.00
8641;BME280;4358;42.100;25.222;2023-07-13T05:54:35;100134.09;;;29.04;100.00
8641;BME280;4358;42.100;25.222;2023-07-13T05:57:03;100129.78;;;29.21;100.00
8641;BME280;4358;42.100;25.222;2023-07-13T05:59:30;100125.59;;;29.25;100.00
8641;BME280;4358;42.100;25.222;2023-07-13T06:01:57;100126.38;;;29.39;100.00
8641;BME280;4358;42.100;25.222;2023-07-13T06:04:24;100130.94;;;29.52;100.00
8641;BME280;4358;42.100;25.222;2023-07-13T06:06:51;100135.22;;;29.72;100.00
8641;BME280;4358;42.100;25.222;2023-07-13T06:09:18;100129.78;;;29.97;100.00
8641;BME280;4358;42.100;25.222;2023-07-13T06:11:45;100133.88;;;30.13;100.00
8641;BME280;4358;42.100;25.222;2023-07-13T06:14:13;100132.47;;;30.28;100.00
8641;BME280;4358;42.100;25.222;2023-07-13T06:16:40;100124.94;;;30.42;99.15
8641;BME280;4358;42.100;25.222;2023-07-13T06:19:07;100120.06;;;30.51;96.69
8641;BME280;4358;42.100;25.222;2023-07-13T06:21:34;100122.34;;;30.54;96.97
8641;BME280;4358;42.100;25.222;2023-07-13T06:24:01;100124.75;;;30.62;95.08
8641;BME280;4358;42.100;25.222;2023-07-13T06:26:28;100123.16;;;30.72;95.41
8641;BME280;4358;42.100;25.222;2023-07-13T06:28:55;100131.03;;;30.87;94.52
8641;BME280;4358;42.100;25.222;2023-07-13T06:31:23;100115.63;;;31.04;93.73
8641;BME280;4358;42.100;25.222;2023-07-13T06:33:50;100118.34;;;31.23;90.48
8641;BME280;4358;42.100;25.222;2023-07-13T06:36:17;100116.88;;;31.08;90.68
8641;BME280;4358;42.100;25.222;2023-07-13T06:38:44;100113.16;;;31.03;90.97
8641;BME280;4358;42.100;25.222;2023-07-13T06:41:11;100120.47;;;31.21;90.69
8641;BME280;4358;42.100;25.222;2023-07-13T06:43:38;100107.00;;;31.49;89.54
8641;BME280;4358;42.100;25.222;2023-07-13T06:46:05;100110.53;;;31.68;87.13
8641;BME280;4358;42.100;25.222;2023-07-13T06:48:33;100109.84;;;31.61;86.27
8641;BME280;4358;42.100;25.222;2023-07-13T06:50:59;100105.06;;;31.68;83.35
8641;BME280;4358;42.100;25.222;2023-07-13T06:53:28;100110.81;;;31.66;81.57
8641;BME280;4358;42.100;25.222;2023-07-13T06:55:55;100105.31;;;31.78;82.20
8641;BME280;4358;42.100;25.222;2023-07-13T06:58:22;100100.22;;;32.05;81.89
8641;BME280;4358;42.100;25.222;2023-07-13T07:00:50;100100.38;;;32.33;78.98
8641;BME280;4358;42.100;25.222;2023-07-13T07:03:18;100099.53;;;32.44;73.14
8641;BME280;4358;42.100;25.222;2023-07-13T07:05:46;100099.44;;;32.39;68.42
8641;BME280;4358;42.100;25.222;2023-07-13T07:08:13;100090.91;;;32.52;65.58
8641;BME280;4358;42.100;25.222;2023-07-13T07:10:40;100096.75;;;32.56;67.98
8641;BME280;4358;42.100;25.222;2023-07-13T07:13:07;100091.38;;;32.72;69.02
8641;BME280;4358;42.100;25.222;2023-07-13T07:15:34;100093.28;;;32.84;67.49
8641;BME280;4358;42.100;25.222;2023-07-13T07:18:01;100091.91;;;32.98;66.44
8641;BME280;4358;42.100;25.222;2023-07-13T07:20:28;100096.00;;;32.95;65.53
8641;BME280;4358;42.100;25.222;2023-07-13T07:22:57;100087.72;;;33.07;66.61
8641;BME280;4358;42.100;25.222;2023-07-13T07:25:24;100088.28;;;33.09;66.72
8641;BME280;4358;42.100;25.222;2023-07-13T07:27:51;100089.63;;;33.06;66.62
8641;BME280;4358;42.100;25.222;2023-07-13T07:30:17;100101.06;;;32.87;68.33
8641;BME280;4358;42.100;25.222;2023-07-13T07:32:44;100094.09;;;32.96;66.46
8641;BME280;4358;42.100;25.222;2023-07-13T07:35:11;100096.84;;;32.96;66.55
8641;BME280;4358;42.100;25.222;2023-07-13T07:37:38;100098.44;;;33.20;63.82
8641;BME280;4358;42.100;25.222;2023-07-13T07:40:07;100100.72;;;33.23;59.82
8641;BME280;4358;42.100;25.222;2023-07-13T07:42:34;100095.59;;;33.43;59.47
8641;BME280;4358;42.100;25.222;2023-07-13T07:45:01;100095.59;;;33.43;57.67
8641;BME280;4358;42.100;25.222;2023-07-13T07:47:28;100092.25;;;33.41;58.25
8641;BME280;4358;42.100;25.222;2023-07-13T07:49:55;100092.59;;;33.16;58.66
8641;BME280;4358;42.100;25.222;2023-07-13T07:52:22;100101.66;;;33.29;56.13
8641;BME280;4358;42.100;25.222;2023-07-13T07:54:49;100103.66;;;33.33;56.65
8641;BME280;4358;42.100;25.222;2023-07-13T07:57:17;100096.16;;;33.45;55.18
8641;BME280;4358;42.100;25.222;2023-07-13T07:59:44;100091.34;;;33.52;55.47
8641;BME280;4358;42.100;25.222;2023-07-13T08:02:11;100099.94;;;33.56;52.99
8641;BME280;4358;42.100;25.222;2023-07-13T08:04:38;100092.78;;;33.55;52.92
8641;BME280;4358;42.100;25.222;2023-07-13T08:07:05;100085.50;;;33.66;54.14
8641;BME280;4358;42.100;25.222;2023-07-13T08:09:32;100084.56;;;33.88;53.24
8641;BME280;4358;42.100;25.222;2023-07-13T08:11:59;100082.88;;;33.87;53.28
8641;BME280;4358;42.100;25.222;2023-07-13T08:14:27;100079.06;;;33.88;53.07
8641;BME280;4358;42.100;25.222;2023-07-13T08:16:55;100074.22;;;33.79;53.32
8641;BME280;4358;42.100;25.222;2023-07-13T08:19:21;100082.72;;;33.94;51.90
8641;BME280;4358;42.100;25.222;2023-07-13T08:21:48;100081.44;;;34.18;51.48
8641;BME280;4358;42.100;25.222;2023-07-13T08:24:15;100078.53;;;34.41;50.85
8641;BME280;4358;42.100;25.222;2023-07-13T08:26:44;100077.00;;;34.51;50.73
8641;BME280;4358;42.100;25.222;2023-07-13T08:29:11;100078.00;;;34.44;52.63
8641;BME280;4358;42.100;25.222;2023-07-13T08:31:40;100080.31;;;34.69;52.07
8641;BME280;4358;42.100;25.222;2023-07-13T08:34:06;100078.78;;;34.78;52.90
8641;BME280;4358;42.100;25.222;2023-07-13T08:36:33;100076.00;;;35.00;53.30
8641;BME280;4358;42.100;25.222;2023-07-13T08:39:00;100071.16;;;35.34;52.51
8641;BME280;4358;42.100;25.222;2023-07-13T08:41:28;100074.38;;;35.26;52.15
8641;BME280;4358;42.100;25.222;2023-07-13T08:43:57;100075.22;;;35.26;52.01
8641;BME280;4358;42.100;25.222;2023-07-13T08:46:27;100078.19;;;35.47;51.47
8641;BME280;4358;42.100;25.222;2023-07-13T08:48:58;100078.22;;;35.52;50.33
8641;BME280;4358;42.100;25.222;2023-07-13T08:51:35;100079.06;;;35.52;48.36
8641;BME280;4358;42.100;25.222;2023-07-13T08:54:08;100076.47;;;35.41;48.16
8641;BME280;4358;42.100;25.222;2023-07-13T08:56:37;100067.72;;;35.22;48.99
8641;BME280;4358;42.100;25.222;2023-07-13T08:59:10;100067.03;;;35.37;50.35
8641;BME280;4358;42.100;25.222;2023-07-13T09:02:06;100071.34;;;35.81;44.71
8641;BME280;4358;42.100;25.222;2023-07-13T09:04:41;100058.97;;;36.21;43.17
8641;BME280;4358;42.100;25.222;2023-07-13T09:07:14;100052.47;;;36.47;43.17
8641;BME280;4358;42.100;25.222;2023-07-13T09:09:54;100052.38;;;36.84;41.08
8641;BME280;4358;42.100;25.222;2023-07-13T09:12:27;100054.38;;;36.99;41.08
8641;BME280;4358;42.100;25.222;2023-07-13T09:14:59;100047.50;;;37.11;39.19
8641;BME280;4358;42.100;25.222;2023-07-13T09:17:34;100048.91;;;37.14;40.85
8641;BME280;4358;42.100;25.222;2023-07-13T09:20:10;100041.44;;;37.24;41.91
8641;BME280;4358;42.100;25.222;2023-07-13T09:22:40;100039.53;;;37.40;40.37
8641;BME280;4358;42.100;25.222;2023-07-13T09:25:21;100036.19;;;37.28;40.99
8641;BME280;4358;42.100;25.222;2023-07-13T09:27:53;100029.53;;;37.29;40.78
8641;BME280;4358;42.100;25.222;2023-07-13T09:30:27;100029.06;;;37.57;40.74
8641;BME280;4358;42.100;25.222;2023-07-13T09:32:57;100027.38;;;37.82;40.91
8641;BME280;4358;42.100;25.222;2023-07-13T09:35:27;100017.41;;;37.81;40.26
8641;BME280;4358;42.100;25.222;2023-07-13T09:37:58;100021.28;;;37.64;38.99
8641;BME280;4358;42.100;25.222;2023-07-13T09:40:30;100021.56;;;37.73;38.60
8641;BME280;4358;42.100;25.222;2023-07-13T09:43:03;100007.44;;;38.00;39.97
8641;BME280;4358;42.100;25.222;2023-07-13T09:45:33;99999.03;;;38.35;38.06
8641;BME280;4358;42.100;25.222;2023-07-13T09:48:04;99993.34;;;38.71;37.59
8641;BME280;4358;42.100;25.222;2023-07-13T09:50:33;99991.06;;;38.83;36.98
8641;BME280;4358;42.100;25.222;2023-07-13T09:53:01;99981.25;;;39.01;37.03
8641;BME280;4358;42.100;25.222;2023-07-13T09:55:31;99986.41;;;39.17;35.14
8641;BME280;4358;42.100;25.222;2023-07-13T09:58:03;99981.19;;;39.11;35.04
8641;BME280;4358;42.100;25.222;2023-07-13T10:00:30;99982.19;;;39.25;35.31
8641;BME280;4358;42.100;25.222;2023-07-13T10:03:00;99977.97;;;39.32;33.24
8641;BME280;4358;42.100;25.222;2023-07-13T10:05:27;99977.56;;;39.10;32.89
8641;BME280;4358;42.100;25.222;2023-07-13T10:07:56;99955.78;;;38.88;33.29
8641;BME280;4358;42.100;25.222;2023-07-13T10:10:23;99955.63;;;39.14;34.50
8641;BME280;4358;42.100;25.222;2023-07-13T10:12:50;99951.19;;;39.52;33.29
8641;BME280;4358;42.100;25.222;2023-07-13T10:15:19;99949.78;;;39.83;32.63
8641;BME280;4358;42.100;25.222;2023-07-13T10:17:47;99942.44;;;39.92;32.04
8641;BME280;4358;42.100;25.222;2023-07-13T10:20:14;99944.69;;;39.90;31.85
8641;BME280;4358;42.100;25.222;2023-07-13T10:22:44;99932.50;;;39.86;31.67
8641;BME280;4358;42.100;25.222;2023-07-13T10:25:16;99928.63;;;39.87;31.75
8641;BME280;4358;42.100;25.222;2023-07-13T10:27:44;99931.00;;;39.99;32.84
8641;BME280;4358;42.100;25.222;2023-07-13T10:30:16;99928.59;;;40.11;31.14
8641;BME280;4358;42.100;25.222;2023-07-13T10:32:45;99928.78;;;39.96;32.22
8641;BME280;4358;42.100;25.222;2023-07-13T10:35:15;99924.00;;;40.01;31.77
8641;BME280;4358;42.100;25.222;2023-07-13T10:37:48;99918.06;;;40.32;30.94
8641;BME280;4358;42.100;25.222;2023-07-13T10:40:20;99934.63;;;40.18;31.22
8641;BME280;4358;42.100;25.222;2023-07-13T10:42:51;99929.28;;;40.27;30.80
8641;BME280;4358;42.100;25.222;2023-07-13T10:45:22;99926.28;;;40.42;29.84
8641;BME280;4358;42.100;25.222;2023-07-13T10:47:52;99929.59;;;40.25;29.23
8641;BME280;4358;42.100;25.222;2023-07-13T10:50:23;99921.28;;;39.96;29.59
8641;BME280;4358;42.100;25.222;2023-07-13T10:52:52;99910.66;;;40.03;29.99
8641;BME280;4358;42.100;25.222;2023-07-13T10:55:40;99919.03;;;40.46;29.19
8641;BME280;4358;42.100;25.222;2023-07-13T10:58:13;99911.38;;;40.75;28.57
8641;BME280;4358;42.100;25.222;2023-07-13T11:00:47;99904.44;;;40.91;28.21
8641;BME280;4358;42.100;25.222;2023-07-13T11:03:17;99910.00;;;41.10;27.12
8641;BME280;4358;42.100;25.222;2023-07-13T11:05:49;99909.81;;;40.88;26.84
8641;BME280;4358;42.100;25.222;2023-07-13T11:08:20;99906.34;;;40.77;27.22
8641;BME280;4358;42.100;25.222;2023-07-13T11:10:54;99903.03;;;40.75;26.79
8641;BME280;4358;42.100;25.222;2023-07-13T11:16:41;99893.00;;;41.12;26.10
8641;BME280;4358;42.100;25.222;2023-07-13T11:19:27;99899.09;;;41.46;24.83
8641;BME280;4358;42.100;25.222;2023-07-13T11:25:00;99888.09;;;41.36;25.62
8641;BME280;4358;42.100;25.222;2023-07-13T11:27:41;99885.72;;;41.62;24.97
8641;BME280;4358;42.100;25.222;2023-07-13T11:30:21;99892.88;;;41.81;26.62
8641;BME280;4358;42.100;25.222;2023-07-13T11:32:50;99896.38;;;41.41;26.37
8641;BME280;4358;42.100;25.222;2023-07-13T11:35:22;99889.31;;;41.16;25.75
8641;BME280;4358;42.100;25.222;2023-07-13T11:37:49;99893.44;;;41.19;25.58
8641;BME280;4358;42.100;25.222;2023-07-13T11:40:17;99880.47;;;41.28;25.95
8641;BME280;4358;42.100;25.222;2023-07-13T11:42:46;99883.78;;;41.76;25.81
8641;BME280;4358;42.100;25.222;2023-07-13T11:45:20;99883.47;;;42.05;25.00
8641;BME280;4358;42.100;25.222;2023-07-13T11:47:48;99871.31;;;42.28;24.60
8641;BME280;4358;42.100;25.222;2023-07-13T11:50:20;99875.53;;;42.39;25.00
8641;BME280;4358;42.100;25.222;2023-07-13T11:52:48;99874.34;;;42.40;24.39
8641;BME280;4358;42.100;25.222;2023-07-13T11:55:18;99869.63;;;42.27;25.09
8641;BME280;4358;42.100;25.222;2023-07-13T11:57:50;99867.16;;;42.39;24.35
8641;BME280;4358;42.100;25.222;2023-07-13T12:00:22;99866.22;;;42.30;25.18
8641;BME280;4358;42.100;25.222;2023-07-13T12:02:54;99863.06;;;41.96;25.31
8641;BME280;4358;42.100;25.222;2023-07-13T12:05:21;99852.06;;;41.72;25.80
8641;BME280;4358;42.100;25.222;2023-07-13T12:07:49;99864.78;;;41.64;25.23
8641;BME280;4358;42.100;25.222;2023-07-13T12:10:21;99861.56;;;41.57;25.09
8641;BME280;4358;42.100;25.222;2023-07-13T12:12:52;99858.09;;;41.93;24.87
8641;BME280;4358;42.100;25.222;2023-07-13T12:15:19;99857.56;;;42.18;24.59
8641;BME280;4358;42.100;25.222;2023-07-13T12:17:48;99846.88;;;42.20;24.13
8641;BME280;4358;42.100;25.222;2023-07-13T12:20:21;99843.34;;;42.55;23.83
8641;BME280;4358;42.100;25.222;2023-07-13T12:22:50;99838.28;;;42.80;23.45
8641;BME280;4358;42.100;25.222;2023-07-13T12:25:18;99844.00;;;42.97;21.97
8641;BME280;4358;42.100;25.222;2023-07-13T12:27:51;99842.22;;;42.79;20.55
8641;BME280;4358;42.100;25.222;2023-07-13T12:30:26;99834.03;;;42.82;20.54
8641;BME280;4358;42.100;25.222;2023-07-13T12:32:56;99823.94;;;42.95;20.68
8641;BME280;4358;42.100;25.222;2023-07-13T12:35:23;99830.78;;;42.89;21.19
8641;BME280;4358;42.100;25.222;2023-07-13T12:37:51;99820.19;;;42.55;21.77
8641;BME280;4358;42.100;25.222;2023-07-13T12:40:20;99820.75;;;42.43;21.84
8641;BME280;4358;42.100;25.222;2023-07-13T12:42:51;99819.19;;;42.37;21.74
8641;BME280;4358;42.100;25.222;2023-07-13T12:45:21;99822.50;;;42.39;22.62
8641;BME280;4358;42.100;25.222;2023-07-13T12:47:52;99821.19;;;42.23;22.69
8641;BME280;4358;42.100;25.222;2023-07-13T12:50:22;99811.22;;;42.08;22.84
8641;BME280;4358;42.100;25.222;2023-07-13T12:52:51;99806.66;;;42.12;22.83
8641;BME280;4358;42.100;25.222;2023-07-13T12:55:20;99804.63;;;42.26;23.30
8641;BME280;4358;42.100;25.222;2023-07-13T12:57:51;99804.44;;;42.37;22.34
8641;BME280;4358;42.100;25.222;2023-07-13T13:00:22;99806.59;;;42.26;23.01
8641;BME280;4358;42.100;25.222;2023-07-13T13:02:51;99799.81;;;42.32;23.32
8641;BME280;4358;42.100;25.222;2023-07-13T13:05:18;99793.56;;;42.35;22.35
8641;BME280;4358;42.100;25.222;2023-07-13T13:07:48;99796.66;;;42.47;22.20
8641;BME280;4358;42.100;25.222;2023-07-13T13:10:16;99781.94;;;42.55;22.26